createdAt,value
2022-08-07T00:01:43.649Z,100.00
2022-08-07T00:04:50.873Z,100.00
2022-08-07T00:10:26.247Z,100.00
2022-08-07T00:16:28.027Z,100.00
2022-08-07T00:19:59.686Z,100.00
2022-08-07T00:22:07.641Z,100.00
2022-08-07T00:24:58.682Z,100.00
2022-08-07T00:30:46.070Z,100.00
2022-08-07T00:36:09.811Z,100.00
2022-08-07T00:39:32.077Z,100.00
2022-08-07T00:42:05.442Z,100.00
2022-08-07T00:45:06.802Z,100.00
2022-08-07T00:48:09.518Z,100.00
2022-08-07T00:50:46.461Z,100.00
2022-08-07T00:53:55.074Z,100.00
2022-08-07T00:56:30.162Z,100.00
2022-08-07T01:02:09.085Z,100.00
2022-08-07T01:08:52.939Z,100.00
2022-08-07T01:12:09.722Z,100.00
2022-08-07T01:14:16.588Z,100.00
2022-08-07T01:16:46.874Z,100.00
2022-08-07T01:19:19.690Z,100.00
2022-08-07T01:21:53.322Z,100.00
2022-08-07T01:24:27.414Z,100.00
2022-08-07T01:26:55.566Z,100.00
2022-08-07T01:29:27.663Z,100.00
2022-08-07T01:32:00.449Z,100.00
2022-08-07T01:34:33.606Z,100.00
2022-08-07T01:37:09.657Z,100.00
2022-08-07T01:39:40.922Z,100.00
2022-08-07T01:42:39.320Z,100.00
2022-08-07T01:45:36.275Z,100.00
2022-08-07T01:48:29.296Z,100.00
2022-08-07T01:51:24.213Z,100.00
2022-08-07T01:54:09.352Z,100.00
2022-08-07T01:57:34.170Z,100.00
2022-08-07T02:00:12.879Z,100.00
2022-08-07T02:03:19.082Z,100.00
2022-08-07T02:05:58.493Z,100.00
2022-08-07T02:08:28.258Z,100.00
2022-08-07T02:10:58.627Z,100.00
2022-08-07T02:13:57.197Z,100.00
2022-08-07T02:16:20.118Z,100.00
2022-08-07T02:19:02.195Z,100.00
2022-08-07T02:21:56.224Z,100.00
2022-08-07T02:24:25.684Z,100.00
2022-08-07T02:26:58.053Z,100.00
2022-08-07T02:29:28.958Z,100.00
2022-08-07T02:32:01.602Z,100.00
2022-08-07T02:34:29.174Z,100.00
2022-08-07T02:37:08.292Z,100.00
2022-08-07T02:39:43.719Z,100.00
2022-08-07T02:42:29.010Z,100.00
2022-08-07T02:44:58.460Z,100.00
2022-08-07T02:47:27.539Z,100.00
2022-08-07T02:50:09.645Z,100.00
2022-08-07T02:53:11.945Z,100.00
2022-08-07T02:56:02.962Z,100.00
2022-08-07T02:58:46.968Z,100.00
2022-08-07T03:01:35.571Z,100.00
2022-08-07T03:07:03.212Z,100.00
2022-08-07T03:09:43.668Z,100.00
2022-08-07T03:12:30.973Z,100.00
2022-08-07T03:15:08.193Z,100.00
2022-08-07T03:17:53.359Z,100.00
2022-08-07T03:20:24.590Z,100.00
2022-08-07T03:22:54.968Z,100.00
2022-08-07T03:25:25.467Z,100.00
2022-08-07T03:28:08.797Z,100.00
2022-08-07T03:30:36.391Z,100.00
2022-08-07T03:33:17.306Z,100.00
2022-08-07T03:36:25.848Z,100.00
2022-08-07T03:39:13.486Z,100.00
2022-08-07T03:41:47.713Z,100.00
2022-08-07T03:44:34.780Z,100.00
2022-08-07T03:50:25.156Z,100.00
2022-08-07T03:53:10.597Z,100.00
2022-08-07T03:56:33.328Z,100.00
2022-08-07T03:59:32.037Z,100.00
2022-08-07T04:02:22.971Z,100.00
2022-08-07T04:05:24.078Z,100.00
2022-08-07T04:08:11.052Z,100.00
2022-08-07T04:14:10.548Z,100.00
2022-08-07T04:16:39.104Z,100.00
2022-08-07T04:19:19.653Z,100.00
2022-08-07T04:22:08.610Z,100.00
2022-08-07T04:24:58.119Z,100.00
2022-08-07T04:27:35.396Z,100.00
2022-08-07T04:30:21.047Z,100.00
2022-08-07T04:32:58.061Z,100.00
2022-08-07T04:35:28.560Z,100.00
2022-08-07T04:38:11.482Z,100.00
2022-08-07T04:40:51.887Z,100.00
2022-08-07T04:44:11.993Z,100.00
2022-08-07T04:47:04.202Z,100.00
2022-08-07T04:49:37.844Z,100.00
2022-08-07T04:52:13.865Z,100.00
2022-08-07T04:55:15.635Z,100.00
2022-08-07T04:58:23.766Z,100.00
2022-08-07T05:01:18.105Z,100.00
2022-08-07T05:07:48.473Z,100.00
2022-08-07T05:14:56.348Z,100.00
2022-08-07T05:16:15.194Z,100.00
2022-08-07T05:22:36.080Z,100.00
2022-08-07T05:26:11.580Z,100.00
2022-08-07T05:28:40.418Z,100.00
2022-08-07T05:31:16.620Z,100.00
2022-08-07T05:33:51.424Z,100.00
2022-08-07T05:36:35.622Z,100.00
2022-08-07T05:40:16.797Z,100.00
2022-08-07T05:42:12.347Z,100.00
2022-08-07T05:45:26.100Z,100.00
2022-08-07T05:48:01.370Z,100.00
2022-08-07T05:50:55.192Z,100.00
2022-08-07T05:54:09.345Z,100.00
2022-08-07T05:56:13.462Z,100.00
2022-08-07T05:58:49.198Z,100.00
2022-08-07T06:01:21.909Z,100.00
2022-08-07T06:04:01.468Z,100.00
2022-08-07T06:06:36.083Z,100.00
2022-08-07T06:09:06.044Z,100.00
2022-08-07T06:11:37.825Z,100.00
2022-08-07T06:14:12.115Z,100.00
2022-08-07T06:16:50.310Z,100.00
2022-08-07T06:19:52.193Z,100.00
2022-08-07T06:22:23.026Z,100.00
2022-08-07T06:25:05.061Z,100.00
2022-08-07T06:27:44.342Z,100.00
2022-08-07T06:30:32.412Z,100.00
2022-08-07T06:33:19.641Z,100.00
2022-08-07T06:36:06.774Z,100.00
2022-08-07T06:38:59.144Z,100.00
2022-08-07T06:42:02.818Z,100.00
2022-08-07T06:44:51.436Z,100.00
2022-08-07T06:47:21.263Z,100.00
2022-08-07T06:49:58.680Z,100.00
2022-08-07T06:56:15.927Z,100.00
2022-08-07T07:00:14.657Z,100.00
2022-08-07T07:02:48.499Z,100.00
2022-08-07T07:17:39.060Z,100.00
2022-08-07T07:20:46.037Z,100.00
2022-08-07T07:24:08.733Z,100.00
2022-08-07T07:26:51.671Z,100.00
2022-08-07T07:30:09.884Z,100.00
2022-08-07T07:32:44.737Z,100.00
2022-08-07T07:35:14.126Z,100.00
2022-08-07T07:37:52.493Z,100.00
2022-08-07T07:40:30.799Z,100.00
2022-08-07T07:42:57.983Z,100.00
2022-08-07T07:46:39.714Z,100.00
2022-08-07T07:48:35.798Z,100.00
2022-08-07T07:51:15.620Z,100.00
2022-08-07T07:53:53.767Z,100.00
2022-08-07T07:56:36.027Z,100.00
2022-08-07T07:59:52.548Z,100.00
2022-08-07T08:03:07.949Z,100.00
2022-08-07T08:05:50.977Z,100.00
2022-08-07T08:08:35.134Z,100.00
2022-08-07T08:11:16.064Z,100.00
2022-08-07T08:13:54.852Z,100.00
2022-08-07T08:16:29.785Z,100.00
2022-08-07T08:20:16.345Z,100.00
2022-08-07T08:22:19.812Z,100.00
2022-08-07T08:25:18.395Z,100.00
2022-08-07T08:27:56.572Z,100.00
2022-08-07T08:33:16.868Z,100.00
2022-08-07T08:35:49.949Z,100.00
2022-08-07T08:38:19.655Z,100.00
2022-08-07T08:40:53.014Z,100.00
2022-08-07T08:43:55.909Z,100.00
2022-08-07T08:46:32.622Z,100.00
2022-08-07T08:49:07.571Z,100.00
2022-08-07T08:52:00.872Z,100.00
2022-08-07T08:54:30.611Z,100.00
2022-08-07T08:57:00.546Z,100.00
2022-08-07T09:00:04.798Z,100.00
2022-08-07T09:02:52.496Z,100.00
2022-08-07T09:05:39.791Z,100.00
2022-08-07T09:08:34.902Z,100.00
2022-08-07T09:11:24.787Z,100.00
2022-08-07T09:14:17.118Z,100.00
2022-08-07T09:16:47.777Z,100.00
2022-08-07T09:19:52.315Z,100.00
2022-08-07T09:24:30.449Z,100.00
2022-08-07T09:25:43.043Z,100.00
2022-08-07T09:30:06.491Z,100.00
2022-08-07T09:31:33.557Z,100.00
2022-08-07T09:34:11.540Z,100.00
2022-08-07T09:36:46.740Z,100.00
2022-08-07T09:39:53.061Z,95.79
2022-08-07T09:43:01.045Z,95.78
2022-08-07T09:47:52.258Z,96.32
2022-08-07T09:50:01.878Z,100.00
2022-08-07T09:52:39.773Z,100.00
2022-08-07T09:55:29.842Z,100.00
2022-08-07T09:58:32.238Z,100.00
2022-08-07T10:01:08.514Z,99.45
2022-08-07T10:04:05.809Z,100.00
2022-08-07T10:06:49.238Z,100.00
2022-08-07T10:09:58.904Z,100.00
2022-08-07T10:12:21.494Z,100.00
2022-08-07T10:14:54.713Z,100.00
2022-08-07T10:18:03.811Z,100.00
2022-08-07T10:20:55.473Z,100.00
2022-08-07T10:24:10.931Z,100.00
2022-08-07T10:27:11.401Z,100.00
2022-08-07T10:30:21.868Z,100.00
2022-08-07T10:34:17.937Z,100.00
2022-08-07T10:37:12.637Z,100.00
2022-08-07T10:40:09.038Z,99.69
2022-08-07T10:42:57.717Z,100.00
2022-08-07T10:49:10.408Z,100.00
2022-08-07T10:52:01.597Z,100.00
2022-08-07T10:54:53.357Z,98.83
2022-08-07T10:57:39.222Z,100.00
2022-08-07T11:00:39.181Z,100.00
2022-08-07T11:03:10.998Z,100.00
2022-08-07T11:06:06.515Z,100.00
2022-08-07T11:08:59.852Z,100.00
2022-08-07T11:11:35.621Z,100.00
2022-08-07T11:14:45.255Z,100.00
2022-08-07T11:17:07.372Z,100.00
2022-08-07T11:19:48.530Z,99.16
2022-08-07T11:22:36.010Z,95.52
2022-08-07T11:25:23.349Z,97.49
2022-08-07T11:28:01.277Z,100.00
2022-08-07T11:30:47.048Z,100.00
2022-08-07T11:33:53.367Z,100.00
2022-08-07T11:36:49.522Z,99.03
2022-08-07T11:39:59.741Z,100.00
2022-08-07T11:42:30.391Z,100.00
2022-08-07T11:45:23.813Z,99.86
2022-08-07T11:48:30.166Z,97.67
2022-08-07T11:51:40.825Z,98.97
2022-08-07T11:54:10.297Z,95.13
2022-08-07T11:57:14.203Z,100.00
2022-08-07T12:00:10.821Z,87.02
2022-08-07T12:03:04.944Z,94.44
2022-08-07T12:05:59.833Z,95.92
2022-08-07T12:08:34.414Z,95.40
2022-08-07T12:11:21.402Z,97.75
2022-08-07T12:13:54.211Z,95.66
2022-08-07T12:16:34.788Z,91.95
2022-08-07T12:19:21.696Z,98.72
2022-08-07T12:22:39.677Z,96.54
2022-08-07T12:26:21.687Z,94.43
2022-08-07T12:29:11.275Z,99.48
2022-08-07T12:32:01.829Z,95.64
2022-08-07T12:34:29.629Z,100.00
2022-08-07T12:37:00.885Z,95.86
2022-08-07T12:39:43.170Z,97.77
2022-08-07T12:42:16.577Z,99.10
2022-08-07T12:44:45.710Z,100.00
2022-08-07T12:47:21.724Z,93.98
2022-08-07T12:50:33.985Z,95.03
2022-08-07T12:53:22.588Z,96.30
2022-08-07T12:56:02.579Z,97.50
2022-08-07T12:58:39.344Z,100.00
2022-08-07T13:01:44.397Z,100.00
2022-08-07T13:04:34.567Z,100.00
2022-08-07T13:08:12.304Z,100.00
2022-08-07T13:10:52.342Z,100.00
2022-08-07T13:13:48.045Z,99.83
2022-08-07T13:16:22.325Z,100.00
2022-08-07T13:19:18.390Z,100.00
2022-08-07T13:22:32.823Z,100.00
2022-08-07T13:25:30.636Z,100.00
2022-08-07T13:28:13.877Z,100.00
2022-08-07T13:30:49.108Z,100.00
2022-08-07T13:34:30.491Z,100.00
2022-08-07T13:36:26.261Z,100.00
2022-08-07T13:38:58.955Z,100.00
2022-08-07T13:41:41.662Z,100.00
2022-08-07T13:44:12.899Z,100.00
2022-08-07T13:46:49.457Z,100.00
2022-08-07T13:50:33.176Z,100.00
2022-08-07T13:52:30.649Z,100.00
2022-08-07T13:54:56.563Z,100.00
2022-08-07T13:57:26.386Z,99.53
2022-08-07T14:00:01.436Z,100.00
2022-08-07T14:02:49.306Z,97.26
2022-08-07T14:05:22.095Z,96.14
2022-08-07T14:08:00.930Z,100.00
2022-08-07T14:10:42.030Z,90.25
2022-08-07T14:13:14.578Z,89.13
2022-08-07T14:15:50.456Z,90.17
2022-08-07T14:18:29.365Z,84.63
2022-08-07T14:22:01.456Z,83.96
2022-08-07T14:24:26.813Z,88.84
2022-08-07T14:27:00.628Z,88.44
2022-08-07T14:30:09.378Z,87.08
2022-08-07T14:32:20.676Z,82.76
2022-08-07T14:34:52.708Z,83.12
2022-08-07T14:37:36.435Z,83.48
2022-08-07T14:40:15.608Z,89.05
2022-08-07T14:43:55.355Z,83.76
2022-08-07T14:45:51.882Z,86.50
2022-08-07T14:48:27.525Z,83.09
2022-08-07T14:50:58.293Z,83.26
2022-08-07T14:54:05.740Z,79.43
2022-08-07T14:56:30.333Z,81.19
2022-08-07T14:59:01.459Z,82.25
2022-08-07T15:01:42.358Z,85.20
2022-08-07T15:04:10.809Z,83.76
2022-08-07T15:06:39.055Z,83.09
2022-08-07T15:12:07.939Z,86.61
2022-08-07T15:20:33.107Z,80.21
2022-08-07T15:23:20.260Z,77.36
2022-08-07T15:25:52.610Z,77.16
2022-08-07T15:28:34.714Z,87.59
2022-08-07T15:31:11.094Z,77.11
2022-08-07T15:33:43.532Z,82.20
2022-08-07T15:36:11.827Z,81.13
2022-08-07T15:38:51.315Z,79.70
2022-08-07T15:42:42.320Z,79.24
2022-08-07T15:44:12.385Z,79.83
2022-08-07T15:50:05.634Z,77.02
2022-08-07T15:52:30.186Z,79.90
2022-08-07T15:55:02.588Z,77.54
2022-08-07T15:57:47.671Z,79.41
2022-08-07T16:00:31.100Z,77.17
2022-08-07T16:03:02.898Z,79.43
2022-08-07T16:05:31.407Z,76.50
2022-08-07T16:08:32.814Z,77.89
2022-08-07T16:11:26.458Z,77.39
2022-08-07T16:13:58.940Z,82.94
2022-08-07T16:16:43.124Z,79.76
2022-08-07T16:19:58.803Z,79.22
2022-08-07T16:22:33.890Z,85.19
2022-08-07T16:25:10.765Z,88.19
2022-08-07T16:28:14.178Z,82.24
2022-08-07T16:31:02.383Z,78.92
2022-08-07T16:34:02.435Z,80.81
2022-08-07T16:38:06.046Z,82.42
2022-08-07T16:40:28.307Z,82.05
2022-08-07T16:43:12.395Z,85.03
2022-08-07T16:46:40.441Z,86.33
2022-08-07T16:50:20.329Z,83.29
2022-08-07T16:52:51.513Z,83.94
2022-08-07T16:55:50.567Z,82.34
2022-08-07T16:58:20.001Z,87.20
2022-08-07T17:01:09.892Z,88.09
2022-08-07T17:04:13.996Z,92.15
2022-08-07T17:07:04.921Z,100.00
2022-08-07T17:10:06.223Z,100.00
2022-08-07T17:12:44.685Z,96.54
2022-08-07T17:15:15.509Z,95.46
2022-08-07T17:17:50.933Z,94.66
2022-08-07T17:20:41.778Z,95.57
2022-08-07T17:23:17.316Z,92.37
2022-08-07T17:26:23.276Z,89.81
2022-08-07T17:28:57.842Z,96.95
2022-08-07T17:31:44.172Z,87.67
2022-08-07T17:34:57.193Z,83.98
2022-08-07T17:38:09.687Z,83.50
2022-08-07T17:41:12.471Z,82.49
2022-08-07T17:44:33.732Z,82.02
2022-08-07T17:47:16.870Z,83.46
2022-08-07T17:50:00.785Z,86.23
2022-08-07T17:52:31.029Z,87.20
2022-08-07T17:55:16.459Z,91.19
2022-08-07T17:58:08.955Z,92.27
2022-08-07T18:00:48.993Z,98.02
2022-08-07T18:03:18.347Z,94.12
2022-08-07T18:06:02.442Z,98.39
2022-08-07T18:09:01.391Z,98.77
2022-08-07T18:12:16.059Z,97.79
2022-08-07T18:14:31.785Z,100.00
2022-08-07T18:18:45.130Z,100.00
2022-08-07T18:21:03.599Z,100.00
2022-08-07T18:23:43.447Z,100.00
2022-08-07T18:26:20.678Z,100.00
2022-08-07T18:28:58.220Z,100.00
2022-08-07T18:31:59.721Z,100.00
2022-08-07T18:35:01.384Z,100.00
2022-08-07T18:38:56.628Z,100.00
2022-08-07T18:40:53.316Z,100.00
2022-08-07T18:44:02.839Z,100.00
2022-08-07T18:46:43.210Z,100.00
2022-08-07T18:50:30.243Z,100.00
2022-08-07T18:52:55.643Z,100.00
2022-08-07T18:55:40.801Z,100.00
2022-08-07T18:58:22.516Z,100.00
2022-08-07T19:02:19.190Z,100.00
2022-08-07T19:04:54.802Z,100.00
2022-08-07T19:07:36.855Z,100.00
2022-08-07T19:10:23.874Z,100.00
2022-08-07T19:13:21.762Z,100.00
2022-08-07T19:16:04.497Z,100.00
2022-08-07T19:18:54.685Z,100.00
2022-08-07T19:21:51.306Z,100.00
2022-08-07T19:24:30.971Z,100.00
2022-08-07T19:29:02.923Z,100.00
2022-08-07T19:31:00.216Z,100.00
2022-08-07T19:32:47.429Z,100.00
2022-08-07T19:35:22.658Z,100.00
2022-08-07T19:37:57.535Z,100.00
2022-08-07T19:40:34.584Z,100.00
2022-08-07T19:43:10.837Z,100.00
2022-08-07T19:46:05.892Z,100.00
2022-08-07T19:48:42.914Z,100.00
2022-08-07T19:51:19.558Z,100.00
2022-08-07T19:54:34.443Z,100.00
2022-08-07T19:57:51.707Z,100.00
2022-08-07T19:59:40.566Z,100.00
2022-08-07T20:02:18.955Z,100.00
2022-08-07T20:04:49.445Z,100.00
2022-08-07T20:07:23.827Z,100.00
2022-08-07T20:10:37.043Z,100.00
2022-08-07T20:12:53.959Z,100.00
2022-08-07T20:15:24.694Z,100.00
2022-08-07T20:18:03.434Z,100.00
2022-08-07T20:20:33.210Z,100.00
2022-08-07T20:23:32.839Z,100.00
2022-08-07T20:26:10.084Z,100.00
2022-08-07T20:28:38.487Z,100.00
2022-08-07T20:31:21.028Z,100.00
2022-08-07T20:33:51.953Z,100.00
2022-08-07T20:36:26.127Z,100.00
2022-08-07T20:39:00.859Z,100.00
2022-08-07T20:41:48.459Z,100.00
2022-08-07T20:44:18.927Z,100.00
2022-08-07T20:46:48.240Z,100.00
2022-08-07T20:50:00.427Z,100.00
2022-08-07T20:52:30.010Z,100.00
2022-08-07T20:55:10.588Z,100.00
2022-08-07T20:57:47.584Z,100.00
2022-08-07T21:00:42.801Z,100.00
2022-08-07T21:03:14.678Z,100.00
2022-08-07T21:05:56.245Z,100.00
2022-08-07T21:08:40.866Z,100.00
2022-08-07T21:11:15.622Z,100.00
2022-08-07T21:14:16.779Z,100.00
2022-08-07T21:16:56.828Z,100.00
2022-08-07T21:19:51.039Z,100.00
2022-08-07T21:22:28.267Z,100.00
2022-08-07T21:25:12.278Z,100.00
2022-08-07T21:28:06.029Z,100.00
2022-08-07T21:30:49.824Z,100.00
2022-08-07T21:33:29.400Z,100.00
2022-08-07T21:36:32.630Z,100.00
2022-08-07T21:39:45.608Z,100.00
2022-08-07T21:42:04.845Z,100.00
2022-08-07T21:44:57.785Z,100.00
2022-08-07T21:47:39.874Z,100.00
2022-08-07T21:50:26.235Z,100.00
2022-08-07T21:53:10.201Z,100.00
2022-08-07T21:55:56.173Z,100.00
2022-08-07T21:58:36.189Z,100.00
2022-08-07T22:01:23.177Z,100.00
2022-08-07T22:04:20.151Z,100.00
2022-08-07T22:06:55.417Z,100.00
2022-08-07T22:09:25.897Z,100.00
2022-08-07T22:12:07.035Z,100.00
2022-08-07T22:15:03.252Z,100.00
2022-08-07T22:18:22.647Z,100.00
2022-08-07T22:20:49.239Z,100.00
2022-08-07T22:23:21.474Z,100.00
2022-08-07T22:25:59.251Z,100.00
2022-08-07T22:28:32.792Z,100.00
2022-08-07T22:31:06.729Z,100.00
2022-08-07T22:33:56.254Z,100.00
2022-08-07T22:36:24.257Z,100.00
2022-08-07T22:39:07.348Z,100.00
2022-08-07T22:42:03.616Z,100.00
2022-08-07T22:44:29.073Z,100.00
2022-08-07T22:47:23.118Z,100.00
2022-08-07T22:50:33.035Z,100.00
2022-08-07T22:54:06.951Z,100.00
2022-08-07T22:56:09.247Z,100.00
2022-08-07T22:59:16.269Z,100.00
2022-08-07T23:02:08.122Z,100.00
2022-08-07T23:04:57.735Z,100.00
2022-08-07T23:08:24.133Z,100.00
2022-08-07T23:11:27.092Z,100.00
2022-08-07T23:14:15.101Z,100.00
2022-08-07T23:16:55.261Z,100.00
2022-08-07T23:20:03.746Z,100.00
2022-08-07T23:23:01.545Z,100.00
2022-08-07T23:26:02.566Z,100.00
2022-08-07T23:28:38.528Z,100.00
2022-08-07T23:31:11.575Z,100.00
2022-08-07T23:34:35.552Z,100.00
2022-08-07T23:36:43.006Z,100.00
2022-08-07T23:39:14.442Z,100.00
2022-08-07T23:42:07.529Z,100.00
2022-08-07T23:44:52.263Z,100.00
2022-08-07T23:47:24.844Z,100.00
2022-08-07T23:50:16.391Z,100.00
2022-08-07T23:53:19.057Z,100.00
2022-08-07T23:56:15.803Z,100.00
2022-08-07T23:58:54.736Z,100.00
